^^
Datos históricos de la estación: Murcia-Puente Tocinos
Diario Informe para Agosto 28, 2021 Unidades:  Métrico    Ingés   Ambas
Diario Semanal Mensual Anual
  Máxima: Mínima: Promedio:
Temperatura: 26.8 °C 14.8 °C 19.6 °C
Punto de rocio: 10.9 °C 7.7 °C 9.6 °C
Humedad: 67% 30.8% 54%
Velocidad viento: 13.7km/h 3.9km/h 8.9km/h
Racha viento: 22.5km/h - -
Viento- - SSO
Presión: 1023.5 hPa 1019.3 hPa -
Precipitación: 0.0 mm    
 
 
Tabla de datos para Agosto 28, 2021
Hora Temperatura Punto de rocio Presión Viento Velocidad viento Racha viento Humedad Intensidad lluvia(por hora) Nubes
00:04 18.2 °C 10.7 °C 1023.5 hPa SSO 9.5 km/h 16.1 km/h 61.8% 0.0 mm
00:09 18.2 °C 10.7 °C 1023.5 hPa SSO 8.6 km/h 13.7 km/h 62% 0.0 mm
00:14 18.2 °C 10.8 °C 1023.4 hPa SSO 8.4 km/h 14.5 km/h 62% 0.0 mm
00:19 18.1 °C 10.7 °C 1023.4 hPa SSO 7.8 km/h 10 km/h 62% 0.0 mm
00:24 18 °C 10.6 °C 1023.4 hPa Sur 7.6 km/h 11.1 km/h 62% 0.0 mm
00:29 17.8 °C 10.5 °C 1023.2 hPa Sur 7.1 km/h 11.9 km/h 62.4% 0.0 mm
00:34 17.7 °C 10.5 °C 1023.2 hPa Sur 6.9 km/h 13.7 km/h 63% 0.0 mm
00:39 17.6 °C 10.4 °C 1023.2 hPa Sur 8 km/h 14.8 km/h 63% 0.0 mm
00:44 17.7 °C 10.5 °C 1023.0 hPa SSO 8.4 km/h 14.8 km/h 63% 0.0 mm
00:49 17.7 °C 10.6 °C 1023.0 hPa SO 9.6 km/h 14.5 km/h 63% 0.0 mm
00:54 17.7 °C 10.6 °C 1023.0 hPa SO 10 km/h 12.9 km/h 63% 0.0 mm
00:59 17.7 °C 10.5 °C 1022.8 hPa SO 9 km/h 13 km/h 63% 0.0 mm
01:04 17.6 °C 10.4 °C 1022.8 hPa SO 8.7 km/h 12.9 km/h 63% 0.0 mm
01:09 17.5 °C 10.3 °C 1022.8 hPa OSO 7 km/h 9.7 km/h 63% 0.0 mm
01:14 17.4 °C 10.4 °C 1022.8 hPa Sur 6.5 km/h 8 km/h 63.6% 0.0 mm
01:19 17.3 °C 10.4 °C 1022.8 hPa SSE 4.5 km/h 9.5 km/h 64% 0.0 mm
01:24 17.2 °C 10.4 °C 1022.8 hPa SSO 3.9 km/h 14.8 km/h 64% 0.0 mm
01:29 17.2 °C 10.3 °C 1022.3 hPa SSO 7.5 km/h 17.2 km/h 64% 0.0 mm
01:34 17.1 °C 10.2 °C 1022.3 hPa SSO 8.4 km/h 17.7 km/h 64.1% 0.0 mm
01:39 17.1 °C 10.2 °C 1022.3 hPa SSO 9.7 km/h 14.8 km/h 64% 0.0 mm
01:44 17.2 °C 10.3 °C 1022.2 hPa SSO 10 km/h 14.8 km/h 64% 0.0 mm
01:49 17.3 °C 10.4 °C 1022.2 hPa Sur 10 km/h 14.8 km/h 63.8% 0.0 mm
01:54 17.5 °C 10.3 °C 1022.2 hPa Sur 10 km/h 14.8 km/h 62.9% 0.0 mm
01:59 17.7 °C 10.3 °C 1022.2 hPa Sur 10 km/h 14.8 km/h 62% 0.0 mm
02:04 17.7 °C 10.3 °C 1022.2 hPa Sur 10 km/h 16.7 km/h 61.9% 0.0 mm
02:09 17.8 °C 10.2 °C 1022.2 hPa Sur 9.6 km/h 16.1 km/h 61% 0.0 mm
02:14 17.9 °C 10.2 °C 1022.2 hPa Sur 9.5 km/h 17.2 km/h 60.7% 0.0 mm
02:19 17.9 °C 10 °C 1022.2 hPa SSO 8.8 km/h 20.4 km/h 60% 0.0 mm
02:24 18.1 °C 10.2 °C 1022.2 hPa SSO 8.7 km/h 22.2 km/h 60% 0.0 mm
02:29 18.1 °C 10 °C 1022.2 hPa Sur 12.4 km/h 22.5 km/h 59.1% 0.0 mm
02:34 18.3 °C 10.1 °C 1022.2 hPa SSO 13 km/h 20.9 km/h 59% 0.0 mm
02:39 18.3 °C 10.2 °C 1022.2 hPa SSO 12.4 km/h 22.2 km/h 59% 0.0 mm
02:44 18.3 °C 10.2 °C 1022.2 hPa OSO 12.2 km/h 22.5 km/h 59% 0.0 mm
02:49 18.3 °C 10.2 °C 1022.2 hPa OSO 10.4 km/h 19.3 km/h 59% 0.0 mm
02:54 18.2 °C 10.2 °C 1022.2 hPa SSO 10 km/h 16.1 km/h 59.4% 0.0 mm
02:59 17.9 °C 9.9 °C 1022.2 hPa Sur 8 km/h 11.3 km/h 59.4% 0.0 mm
03:04 17.5 °C 9.7 °C 1022.2 hPa SSO 7.6 km/h 12.2 km/h 60.1% 0.0 mm
03:09 17.3 °C 9.7 °C 1022.3 hPa SSO 8.3 km/h 13 km/h 61% 0.0 mm
03:14 17.1 °C 9.6 °C 1022.3 hPa SSO 8.4 km/h 12.9 km/h 61.4% 0.0 mm
03:19 16.8 °C 9.5 °C 1022.3 hPa SSO 7.7 km/h 13 km/h 62% 0.0 mm
03:24 16.8 °C 9.5 °C 1022.3 hPa SSO 7.6 km/h 13 km/h 62.2% 0.0 mm
03:29 16.8 °C 9.7 °C 1022.3 hPa SSO 8.2 km/h 13 km/h 63% 0.0 mm
03:34 16.8 °C 9.7 °C 1022.3 hPa Sur 8.4 km/h 14.8 km/h 63% 0.0 mm
03:39 16.6 °C 9.5 °C 1022.3 hPa Sur 9.3 km/h 18 km/h 62.9% 0.0 mm
03:44 16.1 °C 9.5 °C 1022.1 hPa Sur 9.5 km/h 20.4 km/h 65.1% 0.0 mm
03:49 15.8 °C 9.5 °C 1022.1 hPa Sur 11.8 km/h 20.9 km/h 66.3% 0.0 mm
03:54 15.7 °C 9.6 °C 1022.1 hPa Sur 12.2 km/h 18 km/h 67% 0.0 mm
03:59 15.9 °C 9.6 °C 1022.0 hPa Sur 11.3 km/h 19.3 km/h 66.2% 0.0 mm
04:04 16.2 °C 9.6 °C 1022.0 hPa Sur 11.1 km/h 19.3 km/h 64.9% 0.0 mm
04:09 16.3 °C 9.5 °C 1022.1 hPa Sur 11.7 km/h 16.7 km/h 64% 0.0 mm
04:14 16.4 °C 9.6 °C 1022.1 hPa Sur 11.9 km/h 16.1 km/h 64% 0.0 mm
04:19 16.4 °C 9.5 °C 1022.1 hPa Sur 10.6 km/h 18.5 km/h 63.4% 0.0 mm
04:24 16.5 °C 9.4 °C 1022.1 hPa Sur 10.3 km/h 19.3 km/h 63% 0.0 mm
04:29 16.3 °C 9.5 °C 1022.0 hPa Sur 11 km/h 20.4 km/h 63.8% 0.0 mm
04:34 16.1 °C 9.5 °C 1022.0 hPa Sur 11.1 km/h 21.7 km/h 64.9% 0.0 mm
04:39 15.9 °C 9.4 °C 1022.0 hPa Sur 12.1 km/h 22.5 km/h 65% 0.0 mm
04:44 15.8 °C 9.3 °C 1021.9 hPa Sur 12.2 km/h 22.5 km/h 65% 0.0 mm
04:49 15.8 °C 9.2 °C 1021.9 hPa SO 10.7 km/h 19.3 km/h 65% 0.0 mm
04:54 15.7 °C 9.1 °C 1021.9 hPa SSE 10.3 km/h 14.8 km/h 65% 0.0 mm
04:59 15.7 °C 9.1 °C 1021.9 hPa SSE 7.2 km/h 22.2 km/h 65% 0.0 mm
05:04 15.7 °C 8.9 °C 1021.9 hPa Sur 6.5 km/h 22.5 km/h 64.1% 0.0 mm
05:09 15.8 °C 9 °C 1022.0 hPa Sur 11.4 km/h 19.8 km/h 64% 0.0 mm
05:14 15.9 °C 8.9 °C 1022.0 hPa Sur 12.2 km/h 20.9 km/h 63.4% 0.0 mm
05:19 15.9 °C 8.8 °C 1022.0 hPa SSO 12.9 km/h 20.9 km/h 63% 0.0 mm
05:24 16 °C 9 °C 1022.0 hPa Sur 13 km/h 17.2 km/h 63% 0.0 mm
05:29 16.1 °C 8.9 °C 1021.8 hPa SSO 10.8 km/h 19 km/h 62.2% 0.0 mm
05:34 16.2 °C 8.9 °C 1021.8 hPa Sur 10.3 km/h 19.3 km/h 62% 0.0 mm
05:39 16.2 °C 8.8 °C 1021.9 hPa Sur 9.6 km/h 14.8 km/h 61.5% 0.0 mm
05:44 16.2 °C 8.7 °C 1021.9 hPa SSO 9.5 km/h 14.8 km/h 61% 0.0 mm
05:49 16.2 °C 8.7 °C 1021.9 hPa SSO 9.5 km/h 14.5 km/h 61% 0.0 mm
05:54 16.2 °C 8.7 °C 1021.9 hPa SO 9.5 km/h 11.1 km/h 61% 0.0 mm
05:59 16.2 °C 8.7 °C 1021.9 hPa SSO 8.5 km/h 13 km/h 61% 0.0 mm
06:04 16.2 °C 8.7 °C 1021.9 hPa SSO 8.4 km/h 13.7 km/h 61% 0.0 mm
06:09 16.2 °C 8.7 °C 1021.9 hPa Sur 8.4 km/h 14.5 km/h 61% 0.0 mm
06:14 16.2 °C 8.7 °C 1021.9 hPa Sur 8.4 km/h 13.7 km/h 61% 0.0 mm
06:19 16.2 °C 8.6 °C 1021.9 hPa Sur 9.3 km/h 14.8 km/h 61% 0.0 mm
06:24 16.1 °C 8.6 °C 1022.0 hPa Sur 9.5 km/h 18 km/h 61% 0.0 mm
06:29 16.2 °C 8.7 °C 1022.0 hPa SSO 11.4 km/h 19.3 km/h 61% 0.0 mm
06:34 16.3 °C 8.5 °C 1022.0 hPa SSO 11.9 km/h 19.3 km/h 60% 0.0 mm
06:39 16.4 °C 8.6 °C 1022.1 hPa Sur 11.2 km/h 17.2 km/h 60% 0.0 mm
06:44 16.4 °C 8.6 °C 1022.1 hPa Sur 11.1 km/h 17.7 km/h 60% 0.0 mm
06:49 16.3 °C 8.5 °C 1022.1 hPa Sur 9.7 km/h 15.6 km/h 60% 0.0 mm
06:54 16.2 °C 8.5 °C 1022.1 hPa SSO 9.5 km/h 20.4 km/h 60% 0.0 mm
06:59 16.3 °C 8.5 °C 1022.0 hPa SSO 11.6 km/h 20.9 km/h 59.7% 0.0 mm
07:04 16.5 °C 8.5 °C 1022.0 hPa SSO 11.9 km/h 19.3 km/h 59% 0.0 mm
07:09 16.6 °C 8.6 °C 1022.0 hPa SSO 13.3 km/h 19.3 km/h 59% 0.0 mm
07:14 16.7 °C 8.4 °C 1022.0 hPa SSO 13.7 km/h 20.9 km/h 58.1% 0.0 mm
07:19 16.8 °C 8.4 °C 1022.0 hPa SSO 13.7 km/h 20.9 km/h 58% 0.0 mm
07:24 16.8 °C 8.5 °C 1022.1 hPa SSO 13.7 km/h 20.9 km/h 58% 0.0 mm
07:29 16.8 °C 8.5 °C 1022.1 hPa SSO 13.7 km/h 20.9 km/h 57.7% 0.0 mm
07:34 16.8 °C 8.3 °C 1022.1 hPa SSO 13.7 km/h 20.9 km/h 57% 0.0 mm
07:39 16.8 °C 8.4 °C 1022.1 hPa Sur 12.5 km/h 17.7 km/h 57.7% 0.0 mm
07:44 16.7 °C 8.4 °C 1022.1 hPa Sur 12.2 km/h 17.7 km/h 58% 0.0 mm
07:49 16.5 °C 8.3 °C 1022.1 hPa Sur 10.6 km/h 19 km/h 58% 0.0 mm
07:54 16.4 °C 8.4 °C 1022.1 hPa Sur 10.3 km/h 19.3 km/h 59% 0.0 mm
07:59 16.3 °C 8.3 °C 1022.1 hPa Sur 11.6 km/h 18.5 km/h 59% 0.0 mm
08:04 16.2 °C 8.2 °C 1022.1 hPa SSO 11.9 km/h 19.3 km/h 59% 0.0 mm
08:09 16.3 °C 8.3 °C 1022.2 hPa SSO 11.9 km/h 16.7 km/h 59% 0.0 mm
08:14 16.4 °C 8.4 °C 1022.2 hPa Sur 11.9 km/h 17.2 km/h 59% 0.0 mm
08:19 16.4 °C 8.4 °C 1022.2 hPa Sur 11.2 km/h 17.7 km/h 59% 0.0 mm
08:24 16.4 °C 8.3 °C 1022.3 hPa Sur 11.1 km/h 19 km/h 59% 0.0 mm
08:29 16 °C 8.3 °C 1022.3 hPa Sur 11.8 km/h 19.3 km/h 60.1% 0.0 mm
08:34 15.7 °C 8.3 °C 1022.3 hPa Sur 11.9 km/h 19.3 km/h 61.3% 0.0 mm
08:39 15.5 °C 8.3 °C 1022.6 hPa Sur 11.2 km/h 19.3 km/h 62.3% 0.0 mm
08:44 15.3 °C 8.3 °C 1022.6 hPa SSO 11.1 km/h 19.3 km/h 63.1% 0.0 mm
08:49 15.2 °C 8.5 °C 1022.6 hPa Sur 10.4 km/h 14.5 km/h 64% 0.0 mm
08:54 15.1 °C 8.5 °C 1022.9 hPa Sur 10.3 km/h 13 km/h 64.9% 0.0 mm
08:59 14.9 °C 8.6 °C 1022.9 hPa SSO 8.7 km/h 14.8 km/h 66% 0.0 mm
09:04 14.8 °C 8.6 °C 1022.9 hPa SSO 8.4 km/h 17.2 km/h 66.4% 0.0 mm
09:09 14.8 °C 8.7 °C 1022.9 hPa SSO 9.7 km/h 17.7 km/h 67% 0.0 mm
09:14 14.8 °C 8.7 °C 1022.8 hPa SSO 10 km/h 17.7 km/h 67% 0.0 mm
09:19 15 °C 8.9 °C 1022.8 hPa SSO 8.7 km/h 11.1 km/h 67% 0.0 mm
09:24 15.2 °C 8.9 °C 1022.8 hPa SSO 8.4 km/h 13 km/h 66.1% 0.0 mm
09:29 15.4 °C 8.9 °C 1022.8 hPa SO 7.2 km/h 12.9 km/h 65.4% 0.0 mm
09:34 15.7 °C 9 °C 1022.8 hPa SSO 6.9 km/h 11.3 km/h 64.3% 0.0 mm
09:39 16.1 °C 9.1 °C 1022.8 hPa SSO 6.9 km/h 15.6 km/h 63.4% 0.0 mm
09:44 16.6 °C 9.3 °C 1022.8 hPa SSO 6.9 km/h 16.1 km/h 62% 0.0 mm
09:49 17.1 °C 9.2 °C 1022.8 hPa SSO 8.2 km/h 16.1 km/h 60% 0.0 mm
09:54 17.3 °C 9.2 °C 1022.8 hPa SSO 8.4 km/h 16.7 km/h 58.9% 0.0 mm
09:59 17.6 °C 9.2 °C 1022.7 hPa SO 8.6 km/h 18.5 km/h 58% 0.0 mm
10:04 17.7 °C 9.4 °C 1022.7 hPa SO 8.7 km/h 20.4 km/h 58% 0.0 mm
10:09 17.9 °C 9.4 °C 1022.9 hPa SO 10.7 km/h 20.9 km/h 57.7% 0.0 mm
10:14 18.1 °C 9.5 °C 1022.9 hPa SO 11.1 km/h 20.9 km/h 57% 0.0 mm
10:19 18.2 °C 9.3 °C 1022.9 hPa SO 10.4 km/h 22.2 km/h 56.2% 0.0 mm
10:24 18.2 °C 9.3 °C 1023.0 hPa SO 10.3 km/h 22.5 km/h 56% 0.0 mm
10:29 18.3 °C 9.4 °C 1023.0 hPa SO 10.3 km/h 19 km/h 56% 0.0 mm
10:34 18.3 °C 9.4 °C 1023.0 hPa SO 10.3 km/h 19.3 km/h 56% 0.0 mm
10:39 18.4 °C 9.4 °C 1023.1 hPa SO 10.3 km/h 20.1 km/h 56% 0.0 mm
10:44 18.4 °C 9.7 °C 1023.1 hPa SO 10.3 km/h 20.9 km/h 56.8% 0.0 mm
10:49 18.5 °C 9.8 °C 1023.1 hPa SO 12.6 km/h 20.9 km/h 56.8% 0.0 mm
10:54 18.7 °C 9.7 °C 1023.1 hPa SO 13 km/h 22.5 km/h 56.1% 0.0 mm
10:59 18.8 °C 9.9 °C 1023.1 hPa SO 13.6 km/h 22.2 km/h 56% 0.0 mm
11:04 19 °C 9.9 °C 1023.1 hPa SO 13.7 km/h 22.5 km/h 55.7% 0.0 mm
11:09 19.2 °C 10 °C 1023.3 hPa SO 11.5 km/h 19.3 km/h 55% 0.0 mm
11:14 19.4 °C 9.9 °C 1023.3 hPa SO 11.1 km/h 16.7 km/h 54.1% 0.0 mm
11:19 19.7 °C 10.1 °C 1023.3 hPa SSO 10.1 km/h 19 km/h 54% 0.0 mm
11:24 19.8 °C 9.9 °C 1023.3 hPa SO 10 km/h 19.3 km/h 53.1% 0.0 mm
11:29 19.9 °C 10 °C 1023.2 hPa SO 10.2 km/h 22.5 km/h 53% 0.0 mm
11:34 20 °C 10 °C 1023.2 hPa SO 10.3 km/h 22.5 km/h 52.5% 0.0 mm
11:39 20.2 °C 10 °C 1023.2 hPa SSO 11.9 km/h 20.9 km/h 52% 0.0 mm
11:44 20.3 °C 10 °C 1023.2 hPa SO 12.2 km/h 20.4 km/h 51.6% 0.0 mm
11:49 20.5 °C 10 °C 1023.2 hPa SO 12 km/h 20.9 km/h 51% 0.0 mm
11:54 20.6 °C 9.9 °C 1023.2 hPa SSO 11.9 km/h 20.4 km/h 50.3% 0.0 mm
11:59 20.7 °C 9.9 °C 1023.0 hPa SSO 11.9 km/h 20.9 km/h 50% 0.0 mm
12:04 20.8 °C 9.8 °C 1023.0 hPa SO 11.9 km/h 20.9 km/h 49.4% 0.0 mm
12:09 20.8 °C 9.8 °C 1023.0 hPa SO 11.2 km/h 17.7 km/h 49.3% 0.0 mm
12:14 21 °C 9.9 °C 1022.9 hPa Sur 11.1 km/h 16.7 km/h 48.9% 0.0 mm
12:19 21.2 °C 9.8 °C 1022.9 hPa SSO 9.1 km/h 14.8 km/h 48.2% 0.0 mm
12:24 21.3 °C 9.8 °C 1022.9 hPa SSO 8.7 km/h 14.5 km/h 47.9% 0.0 mm
12:29 21.4 °C 9.6 °C 1022.5 hPa SSO 7.7 km/h 13 km/h 47% 0.0 mm
12:34 21.4 °C 9.5 °C 1022.5 hPa SSO 7.6 km/h 12.9 km/h 46.7% 0.0 mm
12:39 21.6 °C 9.6 °C 1022.5 hPa Sur 7 km/h 14.8 km/h 46.6% 0.0 mm
12:44 21.8 °C 9.6 °C 1022.2 hPa Sur 6.9 km/h 14.8 km/h 45.7% 0.0 mm
12:49 22 °C 9.5 °C 1022.2 hPa SE 6.9 km/h 16.7 km/h 45% 0.0 mm
12:54 22.1 °C 9.6 °C 1022.2 hPa SSE 6.9 km/h 16.1 km/h 45% 0.0 mm
12:59 22.2 °C 9.6 °C 1021.9 hPa Sur 8.4 km/h 14 km/h 44.9% 0.0 mm
13:04 22.3 °C 9.6 °C 1021.9 hPa Sur 8.7 km/h 14.8 km/h 44.6% 0.0 mm
13:09 22.3 °C 9.5 °C 1021.9 hPa SSE 7.2 km/h 14.5 km/h 44% 0.0 mm
13:14 22.5 °C 9.6 °C 1021.7 hPa SE 6.9 km/h 14.5 km/h 44% 0.0 mm
13:19 22.7 °C 9.6 °C 1021.7 hPa SO 8.1 km/h 12.9 km/h 43.4% 0.0 mm
13:24 22.9 °C 9.7 °C 1021.7 hPa Sur 8.4 km/h 16.7 km/h 43.3% 0.0 mm
13:29 23.1 °C 9.6 °C 1021.6 hPa Sur 8.4 km/h 16.1 km/h 42.3% 0.0 mm
13:34 23.2 °C 9.6 °C 1021.6 hPa SSO 8.4 km/h 11.3 km/h 42% 0.0 mm
13:39 23.3 °C 9.6 °C 1021.6 hPa SSO 7.1 km/h 11.9 km/h 41.8% 0.0 mm
13:44 23.4 °C 9.6 °C 1021.3 hPa Sur 6.9 km/h 11.9 km/h 41.5% 0.0 mm
13:49 23.6 °C 9.5 °C 1021.3 hPa Sur 8.1 km/h 14.8 km/h 41% 0.0 mm
13:54 23.6 °C 9.6 °C 1021.3 hPa SSO 8.4 km/h 14.8 km/h 41% 0.0 mm
13:59 23.7 °C 9.6 °C 1021.0 hPa Sur 9.3 km/h 14.5 km/h 41% 0.0 mm
14:04 23.8 °C 9.7 °C 1021.0 hPa SSO 9.5 km/h 13.7 km/h 40.8% 0.0 mm
14:09 24 °C 9.6 °C 1021.0 hPa SSO 7.4 km/h 14.5 km/h 40% 0.0 mm
14:14 24.2 °C 9.7 °C 1020.8 hPa SO 6.9 km/h 11.3 km/h 40% 0.0 mm
14:19 24.3 °C 9.6 °C 1020.8 hPa SO 6 km/h 11.3 km/h 39.5% 0.0 mm
14:24 24.3 °C 9.6 °C 1020.8 hPa SO 5.8 km/h 13.7 km/h 39.2% 0.0 mm
14:29 24.4 °C 9.6 °C 1020.5 hPa SSO 6.7 km/h 14.5 km/h 39% 0.0 mm
14:34 24.6 °C 9.7 °C 1020.5 hPa SSO 6.9 km/h 11.3 km/h 39% 0.0 mm
14:39 24.8 °C 9.5 °C 1020.5 hPa SSO 6 km/h 11.9 km/h 38% 0.0 mm
14:44 24.9 °C 9.2 °C 1020.3 hPa SO 5.8 km/h 13.7 km/h 37% 0.0 mm
14:49 24.9 °C 9.2 °C 1020.3 hPa Sur 7.3 km/h 14.5 km/h 37% 0.0 mm
14:54 24.9 °C 9 °C 1020.3 hPa Sur 7.6 km/h 15.6 km/h 36.5% 0.0 mm
14:59 25.1 °C 9 °C 1020.1 hPa SSE 8.5 km/h 16.1 km/h 36.1% 0.0 mm
15:04 25.2 °C 9.1 °C 1020.1 hPa SSO 8.7 km/h 17.2 km/h 36.1% 0.0 mm
15:09 25.2 °C 9.1 °C 1020.1 hPa Sur 9.4 km/h 17.7 km/h 36% 0.0 mm
15:14 25.2 °C 8.7 °C 1019.9 hPa SSO 9.5 km/h 16.1 km/h 35.1% 0.0 mm
15:19 25.3 °C 8.8 °C 1019.9 hPa Sur 8.6 km/h 13.7 km/h 35% 0.0 mm
15:24 25.5 °C 8.5 °C 1019.9 hPa Sur 8.4 km/h 18.3 km/h 34.1% 0.0 mm
15:29 25.6 °C 8.6 °C 1019.8 hPa Sur 9.3 km/h 17.7 km/h 34% 0.0 mm
15:34 25.6 °C 8.6 °C 1019.8 hPa Sur 9.5 km/h 16.1 km/h 34% 0.0 mm
15:39 25.6 °C 8.5 °C 1019.8 hPa Sur 10.2 km/h 16.1 km/h 33.9% 0.0 mm
15:44 25.7 °C 8.6 °C 1019.7 hPa SSO 10.3 km/h 16.7 km/h 33.9% 0.0 mm
15:49 25.7 °C 8.5 °C 1019.7 hPa Sur 10.3 km/h 16.1 km/h 33.6% 0.0 mm
15:54 25.8 °C 8.8 °C 1019.7 hPa SSO 10.3 km/h 13 km/h 34% 0.0 mm
15:59 25.9 °C 8.5 °C 1019.7 hPa SSO 8.7 km/h 13 km/h 33% 0.0 mm
16:04 25.9 °C 8.2 °C 1019.7 hPa SSO 8.4 km/h 14.8 km/h 32.4% 0.0 mm
16:09 26 °C 7.9 °C 1019.7 hPa Sur 8.6 km/h 14.5 km/h 31.9% 0.0 mm
16:14 26.1 °C 7.7 °C 1019.7 hPa SSO 8.7 km/h 13 km/h 31.1% 0.0 mm
16:19 26.2 °C 7.9 °C 1019.7 hPa SO 6.8 km/h 12.9 km/h 31.2% 0.0 mm
16:24 26.3 °C 7.9 °C 1019.7 hPa SO 6.5 km/h 11.3 km/h 31.1% 0.0 mm
16:29 26.3 °C 7.9 °C 1019.6 hPa OSO 6.5 km/h 11.3 km/h 31% 0.0 mm
16:34 26.4 °C 7.9 °C 1019.6 hPa OSO 6.5 km/h 11.3 km/h 31% 0.0 mm
16:39 26.6 °C 8 °C 1019.6 hPa SO 4.3 km/h 9.7 km/h 30.8% 0.0 mm
16:44 26.7 °C 8.2 °C 1019.5 hPa OSO 3.9 km/h 9.7 km/h 31% 0.0 mm
16:49 26.7 °C 8.2 °C 1019.5 hPa OSO 4.8 km/h 9.7 km/h 31% 0.0 mm
16:54 26.7 °C 8.2 °C 1019.5 hPa SO 5 km/h 8 km/h 31% 0.0 mm
16:59 26.8 °C 8.3 °C 1019.4 hPa Sur 4.7 km/h 8 km/h 31% 0.0 mm
17:04 26.8 °C 8.3 °C 1019.4 hPa SSO 4.6 km/h 8 km/h 31% 0.0 mm
17:09 26.8 °C 8.3 °C 1019.4 hPa Sur 4.9 km/h 8.4 km/h 31% 0.0 mm
17:14 26.8 °C 8.4 °C 1019.3 hPa Sur 5 km/h 8.4 km/h 31.2% 0.0 mm
17:19 26.7 °C 8.2 °C 1019.3 hPa Sur 5.6 km/h 8.7 km/h 31.1% 0.0 mm
17:24 26.7 °C 8.2 °C 1019.3 hPa Sur 5.8 km/h 9.7 km/h 31.1% 0.0 mm
17:29 26.6 °C 8.5 °C 1019.3 hPa Sur 5.8 km/h 9.7 km/h 31.8% 0.0 mm
17:34 26.5 °C 8.3 °C 1019.3 hPa SSO 5.8 km/h 10 km/h 31.8% 0.0 mm
17:39 26.4 °C 8.4 °C 1019.4 hPa Sur 5.8 km/h 9.7 km/h 32% 0.0 mm
17:44 26.3 °C 8.5 °C 1019.4 hPa Sur 5.8 km/h 8 km/h 32.5% 0.0 mm
17:49 26.3 °C 8.6 °C 1019.4 hPa Sur 4.9 km/h 8 km/h 32.7% 0.0 mm
17:54 26.1 °C 8.6 °C 1019.4 hPa Sur 4.7 km/h 10 km/h 33% 0.0 mm
17:59 25.8 °C 8.9 °C 1019.3 hPa SSO 6.1 km/h 13 km/h 34.4% 0.0 mm
18:04 25.3 °C 9.4 °C 1019.3 hPa SSO 6.5 km/h 15.6 km/h 36.6% 0.0 mm
18:09 24.8 °C 9.8 °C 1019.5 hPa SSO 9.1 km/h 22.2 km/h 38.8% 0.0 mm
18:14 24.3 °C 10.1 °C 1019.5 hPa SSO 9.5 km/h 22.5 km/h 40.6% 0.0 mm
18:19 23.9 °C 10.3 °C 1019.5 hPa SSO 10.2 km/h 20.4 km/h 42.2% 0.0 mm
18:24 23.6 °C 10.4 °C 1019.5 hPa SSO 10.3 km/h 20.9 km/h 43.4% 0.0 mm
18:29 23.3 °C 10.4 °C 1019.5 hPa SSO 9.6 km/h 17.7 km/h 44% 0.0 mm
18:34 23.2 °C 10.5 °C 1019.5 hPa SSO 9.5 km/h 16.7 km/h 45% 0.0 mm
18:39 22.9 °C 10.5 °C 1019.5 hPa SSO 9.9 km/h 15.6 km/h 45.5% 0.0 mm
18:44 22.7 °C 10.5 °C 1019.5 hPa SSO 10 km/h 20.1 km/h 46% 0.0 mm
18:49 22.5 °C 10.6 °C 1019.5 hPa SSO 10.2 km/h 20.9 km/h 47% 0.0 mm
18:54 22.3 °C 10.6 °C 1019.7 hPa SSO 10.3 km/h 17.7 km/h 47.6% 0.0 mm
18:59 22.1 °C 10.6 °C 1019.7 hPa SSO 11 km/h 20.1 km/h 48.3% 0.0 mm
19:04 21.9 °C 10.7 °C 1019.7 hPa Sur 11.1 km/h 20.9 km/h 49% 0.0 mm
19:09 21.8 °C 10.6 °C 1019.8 hPa SSO 10.5 km/h 20.9 km/h 49.1% 0.0 mm
19:14 21.7 °C 10.8 °C 1019.8 hPa Sur 10.3 km/h 14.8 km/h 50% 0.0 mm
19:19 21.5 °C 10.7 °C 1019.8 hPa Sur 9 km/h 14.8 km/h 50.1% 0.0 mm
19:24 21.4 °C 10.8 °C 1020.0 hPa Sur 8.7 km/h 14.8 km/h 51% 0.0 mm
19:29 21.3 °C 10.7 °C 1020.0 hPa Sur 7.2 km/h 14.5 km/h 51% 0.0 mm
19:34 21.2 °C 10.7 °C 1020.0 hPa SSE 6.9 km/h 12.9 km/h 51.3% 0.0 mm
19:39 21.1 °C 10.8 °C 1020.0 hPa SSO 5.3 km/h 9.7 km/h 52% 0.0 mm
19:44 20.9 °C 10.7 °C 1020.0 hPa SO 5 km/h 9.3 km/h 52% 0.0 mm
19:49 20.8 °C 10.6 °C 1020.0 hPa SSO 4.1 km/h 11.1 km/h 52% 0.0 mm
19:54 20.8 °C 10.8 °C 1020.1 hPa SSO 3.9 km/h 11.3 km/h 52.8% 0.0 mm
19:59 20.7 °C 10.7 °C 1020.1 hPa SSO 6 km/h 8.4 km/h 53% 0.0 mm
20:04 20.6 °C 10.7 °C 1020.1 hPa SO 6.5 km/h 8 km/h 53% 0.0 mm
20:09 20.4 °C 10.7 °C 1020.2 hPa OSO 5 km/h 8 km/h 53.7% 0.0 mm
20:14 20.3 °C 10.7 °C 1020.2 hPa SO 4.7 km/h 11.1 km/h 54% 0.0 mm
20:19 20.2 °C 10.9 °C 1020.2 hPa SSO 4.9 km/h 11.9 km/h 55% 0.0 mm
20:24 20.1 °C 10.8 °C 1020.3 hPa SSO 5 km/h 11.3 km/h 55% 0.0 mm
20:29 20 °C 10.7 °C 1020.3 hPa Sur 6.2 km/h 14.8 km/h 55.1% 0.0 mm
20:34 19.9 °C 10.8 °C 1020.3 hPa SSE 6.5 km/h 14.5 km/h 56% 0.0 mm
20:39 19.8 °C 10.7 °C 1020.3 hPa SSE 8.1 km/h 13 km/h 56% 0.0 mm
20:44 19.7 °C 10.8 °C 1020.2 hPa SSE 8.4 km/h 14.8 km/h 56.6% 0.0 mm
20:49 19.5 °C 10.7 °C 1020.2 hPa SE 9.3 km/h 14.5 km/h 57% 0.0 mm
20:54 19.3 °C 10.7 °C 1020.2 hPa SSE 9.5 km/h 14.8 km/h 57.6% 0.0 mm
20:59 19 °C 10.6 °C 1020.2 hPa SE 9.5 km/h 14.5 km/h 58.3% 0.0 mm
21:04 18.8 °C 10.6 °C 1020.2 hPa SE 9.5 km/h 14.5 km/h 59% 0.0 mm
21:09 18.6 °C 10.6 °C 1020.2 hPa SSE 9.9 km/h 14.8 km/h 59.6% 0.0 mm
21:14 18.4 °C 10.5 °C 1020.2 hPa SSE 10 km/h 14.8 km/h 60% 0.0 mm
21:19 18.3 °C 10.4 °C 1020.2 hPa Sur 10 km/h 14.5 km/h 60% 0.0 mm
21:24 18.3 °C 10.4 °C 1020.2 hPa Sur 10 km/h 11.1 km/h 60% 0.0 mm
21:29 18.3 °C 10.4 °C 1020.2 hPa Sur 8.6 km/h 11.9 km/h 60% 0.0 mm
21:34 18.3 °C 10.4 °C 1020.2 hPa SSO 8.4 km/h 11.3 km/h 60% 0.0 mm
21:39 18.4 °C 10.5 °C 1020.2 hPa SSO 7.1 km/h 11.3 km/h 60% 0.0 mm
21:44 18.5 °C 10.6 °C 1020.2 hPa SSO 6.9 km/h 10 km/h 60% 0.0 mm
21:49 18.6 °C 10.5 °C 1020.2 hPa SSO 6.5 km/h 11.1 km/h 59.2% 0.0 mm
21:54 18.6 °C 10.4 °C 1020.2 hPa SSO 6.5 km/h 11.9 km/h 59% 0.0 mm
21:59 18.6 °C 10.2 °C 1020.1 hPa SO 6.9 km/h 11.3 km/h 58.2% 0.0 mm
22:04 18.6 °C 10.2 °C 1020.1 hPa SSO 6.9 km/h 11.9 km/h 58% 0.0 mm
22:09 18.6 °C 10.2 °C 1020.3 hPa SSO 7.5 km/h 13 km/h 58.2% 0.0 mm
22:14 18.5 °C 10.3 °C 1020.3 hPa SSO 7.6 km/h 13 km/h 59% 0.0 mm
22:19 18.4 °C 10.2 °C 1020.3 hPa SSO 8.3 km/h 13 km/h 59% 0.0 mm
22:24 18.3 °C 10.4 °C 1020.3 hPa SSO 8.4 km/h 12.9 km/h 59.9% 0.0 mm
22:29 18.2 °C 10.4 °C 1020.3 hPa SSO 7.7 km/h 13 km/h 60.4% 0.0 mm
22:34 18.1 °C 10.4 °C 1020.3 hPa SSO 7.6 km/h 14.8 km/h 61% 0.0 mm
22:39 18 °C 10.4 °C 1020.3 hPa SSO 9.1 km/h 14.8 km/h 61.2% 0.0 mm
22:44 17.9 °C 10.5 °C 1020.2 hPa SSO 9.5 km/h 14.5 km/h 62% 0.0 mm
22:49 17.8 °C 10.5 °C 1020.2 hPa SSO 8.8 km/h 12.9 km/h 62% 0.0 mm
22:54 17.8 °C 10.4 °C 1020.2 hPa SSO 8.7 km/h 11.9 km/h 62% 0.0 mm
22:59 17.8 °C 10.6 °C 1020.2 hPa SSO 7.7 km/h 11.9 km/h 62.9% 0.0 mm
23:04 17.7 °C 10.6 °C 1020.2 hPa SSO 7.6 km/h 11.3 km/h 63% 0.0 mm
23:09 17.6 °C 10.5 °C 1020.3 hPa SSO 6.1 km/h 11.1 km/h 63% 0.0 mm
23:14 17.5 °C 10.5 °C 1020.3 hPa SSO 5.8 km/h 11.3 km/h 63.7% 0.0 mm
23:19 17.3 °C 10.5 °C 1020.3 hPa SSO 5.8 km/h 10 km/h 64% 0.0 mm
23:24 17.3 °C 10.4 °C 1020.3 hPa Sur 5.8 km/h 9.7 km/h 64% 0.0 mm
23:29 17.2 °C 10.5 °C 1020.3 hPa Sur 5.8 km/h 10.3 km/h 64.7% 0.0 mm
23:34 17.1 °C 10.4 °C 1020.3 hPa SSO 5.8 km/h 13.7 km/h 65% 0.0 mm
23:39 17 °C 10.4 °C 1020.3 hPa Sur 7.2 km/h 14.5 km/h 65% 0.0 mm
23:44 16.9 °C 10.3 °C 1020.3 hPa SSE 7.6 km/h 12.9 km/h 65% 0.0 mm
23:49 16.8 °C 10.4 °C 1020.3 hPa Sur 7 km/h 11.3 km/h 66% 0.0 mm
23:54 16.7 °C 10.3 °C 1020.3 hPa Sur 6.9 km/h 11.3 km/h 66% 0.0 mm
23:59 16.6 °C 10.2 °C 1020.3 hPa SSO 7.5 km/h 12.2 km/h 66% 0.0 mm
Murcia-Puente Tocinos, Espa?a
Compliments of Weather Underground - 3 mb

La estación de MeteoMurcia.com, publica sus datos en los siguientes proyectos:

Weather Underground PWS IMURCIAP2 Meteoclimatic www.awekas.at

W3Counter
Web Analytics